createdAt,value
2023-05-21T00:01:48.608Z,69.00
2023-05-21T00:06:52.240Z,69.10
2023-05-21T00:11:55.862Z,69.10
2023-05-21T00:17:00.910Z,68.80
2023-05-21T00:22:04.601Z,68.90
2023-05-21T00:27:08.155Z,68.80
2023-05-21T00:32:13.257Z,68.70
2023-05-21T00:37:17.376Z,68.70
2023-05-21T00:42:20.813Z,68.70
2023-05-21T00:47:27.013Z,68.70
2023-05-21T00:52:30.781Z,68.70
2023-05-21T00:57:37.182Z,68.80
2023-05-21T01:02:42.485Z,69.10
2023-05-21T01:07:46.706Z,69.10
2023-05-21T01:12:50.582Z,69.30
2023-05-21T01:17:57.369Z,69.40
2023-05-21T01:23:03.022Z,69.70
2023-05-21T01:28:06.676Z,69.90
2023-05-21T01:33:16.468Z,70.00
2023-05-21T01:38:27.611Z,70.20
2023-05-21T01:43:33.839Z,70.40
2023-05-21T01:48:37.759Z,70.70
2023-05-21T01:53:42.686Z,71.00
2023-05-21T01:58:46.434Z,71.00
2023-05-21T02:03:49.985Z,71.50
2023-05-21T02:08:55.705Z,71.50
2023-05-21T02:13:59.375Z,71.50
2023-05-21T02:19:04.779Z,71.50
2023-05-21T02:24:09.869Z,71.60
2023-05-21T02:29:13.409Z,71.80
2023-05-21T02:34:17.676Z,71.90
2023-05-21T02:39:22.574Z,72.00
2023-05-21T02:44:26.023Z,71.90
2023-05-21T02:49:29.536Z,71.90
2023-05-21T02:54:34.397Z,71.90
2023-05-21T02:59:37.871Z,71.80
2023-05-21T03:04:46.436Z,71.80
2023-05-21T03:09:51.840Z,71.60
2023-05-21T03:14:56.431Z,71.60
2023-05-21T03:19:59.913Z,71.60
2023-05-21T03:25:05.009Z,71.50
2023-05-21T03:30:09.595Z,71.70
2023-05-21T03:35:13.223Z,71.70
2023-05-21T03:40:18.167Z,71.60
2023-05-21T03:45:21.839Z,71.70
2023-05-21T03:50:25.372Z,71.80
2023-05-21T03:55:30.557Z,71.90
2023-05-21T04:00:34.776Z,71.80
2023-05-21T04:05:38.620Z,72.00
2023-05-21T04:10:43.638Z,71.90
2023-05-21T04:15:47.213Z,71.80
2023-05-21T04:20:50.824Z,71.70
2023-05-21T04:25:55.660Z,72.00
2023-05-21T04:30:59.287Z,71.80
2023-05-21T04:36:05.982Z,71.80
2023-05-21T04:41:10.994Z,71.60
2023-05-21T04:46:14.924Z,71.50
2023-05-21T04:51:18.471Z,71.40
2023-05-21T04:56:23.558Z,71.20
2023-05-21T05:01:29.450Z,71.30
2023-05-21T05:06:33.029Z,71.40
2023-05-21T05:11:38.208Z,71.40
2023-05-21T05:16:43.111Z,71.00
2023-05-21T05:21:47.047Z,71.10
2023-05-21T05:26:51.856Z,70.90
2023-05-21T05:31:55.372Z,70.80
2023-05-21T05:36:58.919Z,70.90
2023-05-21T05:42:03.745Z,71.00
2023-05-21T05:47:10.971Z,71.30
2023-05-21T05:52:14.492Z,70.90
2023-05-21T05:57:19.554Z,70.70
2023-05-21T06:02:23.348Z,70.10
2023-05-21T06:07:27.171Z,69.20
2023-05-21T06:12:32.038Z,68.80
2023-05-21T06:17:35.545Z,68.70
2023-05-21T06:22:39.270Z,68.10
2023-05-21T06:27:44.296Z,67.90
2023-05-21T06:32:47.875Z,66.80
2023-05-21T06:37:51.670Z,66.70
2023-05-21T06:42:57.992Z,65.50
2023-05-21T06:48:01.509Z,65.30
2023-05-21T06:53:05.511Z,65.10
2023-05-21T06:58:10.681Z,64.60
2023-05-21T07:03:14.404Z,64.70
2023-05-21T07:08:19.893Z,64.40
2023-05-21T07:13:24.800Z,63.80
2023-05-21T07:18:28.514Z,63.50
2023-05-21T07:23:32.248Z,63.30
2023-05-21T07:28:37.076Z,63.20
2023-05-21T07:33:40.950Z,62.70
2023-05-21T07:38:45.626Z,61.80
2023-05-21T07:43:50.743Z,61.90
2023-05-21T07:48:54.127Z,61.50
2023-05-21T07:53:57.699Z,61.50
2023-05-21T07:59:03.051Z,60.60
2023-05-21T08:04:06.851Z,59.60
2023-05-21T08:09:10.538Z,59.40
2023-05-21T08:14:15.611Z,60.40
2023-05-21T08:19:19.194Z,58.50
2023-05-21T08:24:22.944Z,58.70
2023-05-21T08:29:28.032Z,58.50
2023-05-21T08:34:34.094Z,57.60
2023-05-21T08:39:37.923Z,57.90
2023-05-21T08:44:47.207Z,58.80
2023-05-21T08:49:52.484Z,57.70
2023-05-21T08:54:57.870Z,57.50
2023-05-21T09:00:04.818Z,57.20
2023-05-21T09:05:11.611Z,55.80
2023-05-21T09:10:18.862Z,54.90
2023-05-21T09:15:24.538Z,53.70
2023-05-21T09:20:30.137Z,54.10
2023-05-21T09:25:35.295Z,52.60
2023-05-21T09:30:46.075Z,52.30
2023-05-21T09:35:51.028Z,51.30
2023-05-21T09:40:56.616Z,50.50
2023-05-21T09:46:02.271Z,49.40
2023-05-21T09:51:13.744Z,48.50
2023-05-21T09:56:22.536Z,48.50
2023-05-21T10:01:29.168Z,48.00
2023-05-21T10:06:33.751Z,47.90
2023-05-21T10:11:38.625Z,47.50
2023-05-21T10:16:45.259Z,46.60
2023-05-21T10:21:51.461Z,46.10
2023-05-21T10:26:58.045Z,46.10
2023-05-21T10:32:04.449Z,45.80
2023-05-21T10:37:13.252Z,46.00
2023-05-21T10:42:25.552Z,44.70
2023-05-21T10:48:03.472Z,45.20
2023-05-21T10:53:15.419Z,44.80
2023-05-21T10:58:41.696Z,43.40
2023-05-21T11:03:48.548Z,42.70
2023-05-21T11:08:55.300Z,43.20
2023-05-21T11:14:00.701Z,42.80
2023-05-21T11:19:05.654Z,42.80
2023-05-21T11:24:11.279Z,40.90
2023-05-21T11:29:16.453Z,41.00
2023-05-21T11:34:28.378Z,40.00
2023-05-21T11:39:40.688Z,39.90
2023-05-21T11:44:45.477Z,39.40
2023-05-21T11:49:50.426Z,38.40
2023-05-21T11:54:55.587Z,37.50
2023-05-21T12:00:00.237Z,35.60
2023-05-21T12:05:06.424Z,37.70
2023-05-21T12:10:11.099Z,36.30
2023-05-21T12:15:15.072Z,35.50
2023-05-21T12:20:21.002Z,36.10
2023-05-21T12:25:25.398Z,35.90
2023-05-21T12:30:30.317Z,34.00
2023-05-21T12:35:35.805Z,35.00
2023-05-21T12:40:40.517Z,35.20
2023-05-21T12:45:44.663Z,34.70
2023-05-21T12:50:49.807Z,33.80
2023-05-21T12:55:56.377Z,34.30
2023-05-21T13:01:00.936Z,33.90
2023-05-21T13:06:08.424Z,33.40
2023-05-21T13:11:11.948Z,32.70
2023-05-21T13:16:16.416Z,31.70
2023-05-21T13:21:21.306Z,32.00
2023-05-21T13:26:25.072Z,32.60
2023-05-21T13:31:28.606Z,31.30
2023-05-21T13:36:33.695Z,31.40
2023-05-21T13:41:37.212Z,31.00
2023-05-21T13:46:40.891Z,30.60
2023-05-21T13:51:45.879Z,30.40
2023-05-21T13:56:49.885Z,30.60
2023-05-21T14:01:53.759Z,30.70
2023-05-21T14:06:59.430Z,29.80
2023-05-21T14:12:06.256Z,27.90
2023-05-21T14:17:10.156Z,27.00
2023-05-21T14:22:14.995Z,25.90
2023-05-21T14:27:18.546Z,25.10
2023-05-21T14:32:22.794Z,24.50
2023-05-21T14:37:27.904Z,24.10
2023-05-21T14:42:32.103Z,23.60
2023-05-21T14:47:36.680Z,23.90
2023-05-21T14:52:42.746Z,23.80
2023-05-21T14:57:46.405Z,24.10
2023-05-21T15:02:50.011Z,24.70
2023-05-21T15:07:55.985Z,25.60
2023-05-21T15:12:59.584Z,26.20
2023-05-21T15:18:03.302Z,25.80
2023-05-21T15:23:16.740Z,26.60
2023-05-21T15:28:21.551Z,26.50
2023-05-21T15:33:25.408Z,26.30
2023-05-21T15:38:30.252Z,27.10
2023-05-21T15:43:33.933Z,26.80
2023-05-21T15:48:37.980Z,27.00
2023-05-21T15:53:43.057Z,26.70
2023-05-21T15:58:46.549Z,26.90
2023-05-21T16:03:50.367Z,27.10
2023-05-21T16:08:55.356Z,27.00
2023-05-21T16:13:58.821Z,26.70
2023-05-21T16:19:02.734Z,26.50
2023-05-21T16:24:08.851Z,27.00
2023-05-21T16:29:12.395Z,26.50
2023-05-21T16:34:16.501Z,26.40
2023-05-21T16:39:21.448Z,26.80
2023-05-21T16:44:25.236Z,27.30
2023-05-21T16:49:28.705Z,27.60
2023-05-21T16:54:34.165Z,28.10
2023-05-21T16:59:37.783Z,28.30
2023-05-21T17:04:41.335Z,28.10
2023-05-21T17:09:46.187Z,27.70
2023-05-21T17:14:49.620Z,27.90
2023-05-21T17:19:53.135Z,28.80
2023-05-21T17:24:58.730Z,28.50
2023-05-21T17:30:02.706Z,28.50
2023-05-21T17:35:07.234Z,29.00
2023-05-21T17:40:13.271Z,29.20
2023-05-21T17:45:16.779Z,29.40
2023-05-21T17:50:20.213Z,29.80
2023-05-21T17:55:25.085Z,30.00
2023-05-21T18:00:28.601Z,31.10
2023-05-21T18:05:32.085Z,30.40
2023-05-21T18:10:37.176Z,30.70
2023-05-21T18:15:40.860Z,31.20
2023-05-21T18:20:45.131Z,31.60
2023-05-21T18:25:50.132Z,32.00
2023-05-21T18:30:55.261Z,32.60
2023-05-21T18:35:59.736Z,33.10
2023-05-21T18:41:05.126Z,33.30
2023-05-21T18:46:09.076Z,33.60
2023-05-21T18:51:12.706Z,33.90
2023-05-21T18:56:17.709Z,34.00
2023-05-21T19:01:21.276Z,35.00
2023-05-21T19:06:25.671Z,35.30
2023-05-21T19:11:34.353Z,35.70
2023-05-21T19:16:38.196Z,36.10
2023-05-21T19:21:41.838Z,36.90
2023-05-21T19:26:47.165Z,37.30
2023-05-21T19:31:50.667Z,37.40
2023-05-21T19:36:54.975Z,38.00
2023-05-21T19:41:59.808Z,38.40
2023-05-21T19:47:03.722Z,38.10
2023-05-21T19:52:07.578Z,38.00
2023-05-21T19:57:13.332Z,38.10
2023-05-21T20:02:19.050Z,38.50
2023-05-21T20:07:22.621Z,39.00
2023-05-21T20:12:27.556Z,39.10
2023-05-21T20:17:33.987Z,39.50
2023-05-21T20:22:37.885Z,40.00
2023-05-21T20:27:43.009Z,40.20
2023-05-21T20:32:46.533Z,40.70
2023-05-21T20:37:50.632Z,40.80
2023-05-21T20:42:55.464Z,41.00
2023-05-21T20:48:01.373Z,42.00
2023-05-21T20:53:05.305Z,42.70
2023-05-21T20:58:10.096Z,42.80
2023-05-21T21:03:13.702Z,42.90
2023-05-21T21:08:17.698Z,43.00
2023-05-21T21:13:22.564Z,43.70
2023-05-21T21:18:26.051Z,43.00
2023-05-21T21:23:30.115Z,42.90
2023-05-21T21:28:34.948Z,43.00
2023-05-21T21:33:38.479Z,43.40
2023-05-21T21:38:42.377Z,43.90
2023-05-21T21:43:47.128Z,44.20
2023-05-21T21:48:50.540Z,45.70
2023-05-21T21:53:53.984Z,46.10
2023-05-21T21:58:58.808Z,46.30
2023-05-21T22:04:02.615Z,46.10
2023-05-21T22:09:06.508Z,46.40
2023-05-21T22:14:11.644Z,46.10
2023-05-21T22:19:17.894Z,47.30
2023-05-21T22:24:32.156Z,46.80
2023-05-21T22:29:38.093Z,46.70
